Midway, Missouri
Current Conditions -  °F | °C
As of 3:54 AM on Sunday 26 Oct 2014 (Local Time) from KCOU Reporting Station
Clear Clear  
Wind Chill: 57°   Ceiling: Unl
Heat Index: 57°   Visibility: 10mi
Dew Point: 46°   Wind: 7mph
Humidity: 67%   Direction: 90°E
Pressure: 30.01"   Gusts: NA
Location:  39.0235°N, 92.2896°W
Report Text: KCOU 260854Z AUTO 09006KT 10SM CLR 14/08 A3001 RMK AO2 SLP156 T01390078 58003 $
Loading
Personal Weather Stations






























Interactive Weather Map
Tropical Storm Tracking
New forecast layout! Learn more

10-Day Weather Forecast

Advertisements
Track Severe Weather on mobile